createdAt,value
2019-02-09T00:03:49.512Z,1.50
2019-02-09T00:06:17.880Z,1.40
2019-02-09T00:09:05.508Z,1.50
2019-02-09T00:11:53.128Z,1.60
2019-02-09T00:14:40.736Z,1.53
2019-02-09T00:17:28.456Z,2.67
2019-02-09T00:19:56.877Z,1.43
2019-02-09T00:22:25.257Z,2.53
2019-02-09T00:25:12.752Z,1.50
2019-02-09T00:27:41.367Z,1.47
2019-02-09T00:30:49.651Z,2.00
2019-02-09T00:33:18.192Z,1.70
2019-02-09T00:36:05.806Z,1.70
2019-02-09T00:38:34.196Z,1.60
2019-02-09T00:41:02.569Z,1.90
2019-02-09T00:43:30.947Z,2.30
2019-02-09T00:46:18.570Z,1.83
2019-02-09T00:48:46.946Z,2.10
2019-02-09T00:51:34.457Z,1.70
2019-02-09T00:54:02.801Z,1.63
2019-02-09T00:57:11.078Z,1.90
2019-02-09T00:59:39.526Z,2.17
2019-02-09T01:02:27.229Z,1.90
2019-02-09T01:04:55.607Z,2.23
2019-02-09T01:07:23.979Z,1.70
2019-02-09T01:12:45.712Z,1.93
2019-02-09T01:15:53.996Z,2.23
2019-02-09T01:18:22.376Z,1.90
2019-02-09T01:21:09.990Z,1.47
2019-02-09T01:23:38.364Z,1.70
2019-02-09T01:26:25.849Z,2.57
2019-02-09T01:28:54.226Z,2.47
2019-02-09T01:34:33.913Z,2.00
2019-02-09T01:37:02.283Z,2.03
2019-02-09T01:39:49.905Z,1.97
2019-02-09T01:42:18.278Z,2.37
2019-02-09T01:45:05.779Z,1.73
2019-02-09T01:47:34.144Z,2.00
2019-02-09T01:50:21.732Z,1.80
2019-02-09T01:56:03.940Z,1.83
2019-02-09T01:58:32.578Z,2.83
2019-02-09T02:01:00.944Z,2.20
2019-02-09T02:03:48.573Z,2.70
2019-02-09T02:06:36.285Z,2.47
2019-02-09T02:09:44.573Z,2.03
2019-02-09T02:15:02.023Z,2.50
2019-02-09T02:17:30.385Z,3.00
2019-02-09T02:19:58.777Z,2.20
2019-02-09T02:22:27.150Z,1.90
2019-02-09T02:27:48.270Z,2.10
2019-02-09T02:30:56.561Z,1.93
2019-02-09T02:33:24.935Z,2.27
2019-02-09T02:35:53.310Z,2.47
2019-02-09T02:38:21.993Z,2.77
2019-02-09T02:41:09.715Z,1.97
2019-02-09T02:43:38.090Z,2.30
2019-02-09T02:46:25.597Z,2.20
2019-02-09T02:48:53.978Z,2.10
2019-02-09T02:51:22.371Z,2.20
2019-02-09T02:53:50.724Z,2.30
2019-02-09T02:59:25.875Z,2.00
2019-02-09T03:02:13.487Z,2.10
2019-02-09T03:05:01.205Z,2.23
2019-02-09T03:07:48.732Z,2.63
2019-02-09T03:10:56.984Z,2.60
2019-02-09T03:13:25.356Z,2.07
2019-02-09T03:15:53.729Z,2.27
2019-02-09T03:18:41.214Z,1.93
2019-02-09T03:21:09.594Z,2.30
2019-02-09T03:23:57.220Z,2.17
2019-02-09T03:26:44.703Z,2.80
2019-02-09T03:29:13.077Z,2.40
2019-02-09T03:32:00.695Z,2.53
2019-02-09T03:34:48.416Z,2.60
2019-02-09T03:40:44.132Z,2.00
2019-02-09T03:43:31.743Z,2.97
2019-02-09T03:46:19.458Z,2.10
2019-02-09T03:48:47.828Z,2.03
2019-02-09T03:51:16.200Z,2.43
2019-02-09T03:54:03.680Z,2.10
2019-02-09T03:56:51.173Z,2.00
2019-02-09T03:59:19.889Z,4.00
2019-02-09T04:01:48.259Z,1.87
2019-02-09T04:04:16.692Z,2.53
2019-02-09T04:06:45.063Z,2.33
2019-02-09T04:09:13.429Z,2.70
2019-02-09T04:12:01.146Z,1.90
2019-02-09T04:17:03.449Z,2.10
2019-02-09T04:19:31.827Z,2.30
2019-02-09T04:22:19.532Z,1.90
2019-02-09T04:24:47.913Z,1.80
2019-02-09T04:27:16.275Z,1.80
2019-02-09T04:29:44.648Z,2.37
2019-02-09T04:32:32.365Z,2.07
2019-02-09T04:35:19.853Z,2.07
2019-02-09T04:37:48.228Z,2.20
2019-02-09T04:40:56.513Z,2.43
2019-02-09T04:43:24.884Z,2.40
2019-02-09T04:46:12.509Z,2.27
2019-02-09T04:49:00.358Z,1.90
2019-02-09T04:51:28.735Z,2.30
2019-02-09T04:54:16.349Z,1.87
2019-02-09T04:59:38.270Z,1.90
2019-02-09T05:02:25.897Z,2.70
2019-02-09T05:04:54.276Z,1.97
2019-02-09T05:07:22.640Z,2.10
2019-02-09T05:10:10.137Z,1.90
2019-02-09T05:12:38.509Z,2.10
2019-02-09T05:15:26.224Z,2.10
2019-02-09T05:17:54.588Z,2.43
2019-02-09T05:21:02.884Z,2.10
2019-02-09T05:23:31.253Z,2.60
2019-02-09T05:26:39.545Z,1.70
2019-02-09T05:29:07.919Z,1.60
2019-02-09T05:31:55.550Z,2.07
2019-02-09T05:34:23.922Z,2.17
2019-02-09T05:37:11.541Z,2.50
2019-02-09T05:39:39.934Z,2.00
2019-02-09T05:42:27.624Z,2.07
2019-02-09T05:45:35.919Z,2.10
2019-02-09T05:48:23.409Z,2.63
2019-02-09T05:50:51.782Z,1.90
2019-02-09T05:56:26.939Z,2.63
2019-02-09T05:58:55.302Z,2.20
2019-02-09T06:01:43.031Z,3.00
2019-02-09T06:04:30.512Z,2.47
2019-02-09T06:09:32.552Z,2.57
2019-02-09T06:12:20.046Z,2.37
2019-02-09T06:15:07.528Z,1.83
2019-02-09T06:17:55.024Z,2.17
2019-02-09T06:21:03.329Z,1.50
2019-02-09T06:23:31.723Z,2.20
2019-02-09T06:26:00.369Z,1.97
2019-02-09T06:28:28.802Z,2.07
2019-02-09T06:30:57.170Z,2.03
2019-02-09T06:33:25.548Z,2.07
2019-02-09T06:35:53.924Z,2.90
2019-02-09T06:38:41.645Z,2.60
2019-02-09T06:41:10.026Z,2.83
2019-02-09T06:43:38.403Z,3.20
2019-02-09T06:46:06.783Z,2.80
2019-02-09T06:48:54.267Z,2.90
2019-02-09T06:53:56.867Z,3.17
2019-02-09T06:56:44.488Z,2.73
2019-02-09T06:59:12.856Z,2.87
2019-02-09T07:02:00.482Z,4.60
2019-02-09T07:04:28.854Z,3.40
2019-02-09T07:07:16.473Z,3.50
2019-02-09T07:10:04.093Z,3.77
2019-02-09T07:12:32.470Z,3.17
2019-02-09T07:15:00.831Z,3.23
2019-02-09T07:17:29.209Z,3.17
2019-02-09T07:19:57.572Z,2.87
2019-02-09T07:25:00.318Z,2.50
2019-02-09T07:30:02.354Z,3.03
2019-02-09T07:32:30.738Z,2.77
2019-02-09T07:34:59.101Z,2.73
2019-02-09T07:37:27.479Z,2.40
2019-02-09T07:40:14.960Z,2.80
2019-02-09T07:42:43.333Z,2.00
2019-02-09T07:45:51.609Z,3.23
2019-02-09T07:48:19.988Z,1.77
2019-02-09T07:50:48.367Z,3.03
2019-02-09T07:53:16.747Z,2.50
2019-02-09T07:55:45.112Z,2.83
2019-02-09T07:58:13.484Z,2.30
2019-02-09T08:01:01.150Z,2.80
2019-02-09T08:03:48.874Z,2.03
2019-02-09T08:06:36.484Z,2.63
2019-02-09T08:09:44.771Z,2.00
2019-02-09T08:12:13.139Z,2.37
2019-02-09T08:15:00.752Z,2.40
2019-02-09T08:17:29.133Z,2.03
2019-02-09T08:19:57.735Z,2.10
2019-02-09T08:22:45.235Z,2.37
2019-02-09T08:25:53.570Z,1.50
2019-02-09T08:30:56.359Z,2.13
2019-02-09T08:33:24.738Z,1.73
2019-02-09T08:36:12.356Z,1.70
2019-02-09T08:41:14.337Z,2.10
2019-02-09T08:43:42.724Z,1.77
2019-02-09T08:49:17.881Z,1.80
2019-02-09T08:52:05.366Z,1.87
2019-02-09T08:54:52.994Z,1.83
2019-02-09T08:57:21.369Z,2.07
2019-02-09T09:02:56.297Z,2.13
2019-02-09T09:08:24.410Z,1.60
2019-02-09T09:11:12.026Z,2.13
2019-02-09T09:16:14.374Z,1.87
2019-02-09T09:18:42.753Z,1.80
2019-02-09T09:21:11.133Z,2.10
2019-02-09T09:23:39.534Z,2.40
2019-02-09T09:26:47.800Z,2.40
2019-02-09T09:29:35.296Z,2.20
2019-02-09T09:35:51.646Z,2.20
2019-02-09T09:38:39.147Z,2.50
2019-02-09T09:41:26.633Z,1.93
2019-02-09T09:43:55.015Z,2.00
2019-02-09T09:49:29.956Z,2.33
2019-02-09T09:51:58.326Z,1.90
2019-02-09T09:54:45.955Z,1.80
2019-02-09T09:57:33.574Z,2.20
2019-02-09T10:00:21.201Z,2.23
2019-02-09T10:03:29.735Z,1.90
2019-02-09T10:06:17.223Z,2.10
2019-02-09T10:08:45.602Z,2.47
2019-02-09T10:11:33.090Z,2.30
2019-02-09T10:14:20.729Z,2.73
2019-02-09T10:19:55.665Z,1.53
2019-02-09T10:22:43.151Z,2.40
2019-02-09T10:25:51.437Z,2.17
2019-02-09T10:28:39.064Z,2.10
2019-02-09T10:31:26.770Z,1.93
2019-02-09T10:34:14.388Z,1.70
2019-02-09T10:36:42.756Z,2.20
2019-02-09T10:39:11.132Z,2.20
2019-02-09T10:41:39.503Z,2.43
2019-02-09T10:47:02.443Z,2.60
2019-02-09T10:49:50.071Z,2.60
2019-02-09T10:52:19.164Z,2.23
2019-02-09T11:00:58.052Z,2.50
2019-02-09T11:06:14.107Z,1.70
2019-02-09T11:08:42.483Z,2.77
2019-02-09T11:11:30.065Z,1.73
2019-02-09T11:13:58.469Z,2.50
2019-02-09T11:16:46.082Z,2.70
2019-02-09T11:19:14.462Z,2.40
2019-02-09T11:22:02.083Z,2.00
2019-02-09T11:24:30.468Z,2.50
2019-02-09T11:26:58.842Z,1.70
2019-02-09T11:29:27.222Z,1.83
2019-02-09T11:31:55.606Z,1.90
2019-02-09T11:34:43.221Z,2.40
2019-02-09T11:37:11.593Z,2.50
2019-02-09T11:39:59.085Z,2.10
2019-02-09T11:42:27.459Z,2.23
2019-02-09T11:44:56.347Z,2.50
2019-02-09T11:47:25.940Z,2.07
2019-02-09T11:49:54.323Z,2.57
2019-02-09T11:55:50.055Z,2.50
2019-02-09T11:58:18.438Z,2.10
2019-02-09T12:01:26.733Z,2.10
2019-02-09T12:03:55.123Z,2.07
2019-02-09T12:06:23.502Z,2.47
2019-02-09T12:09:10.990Z,1.83
2019-02-09T12:11:39.403Z,2.43
2019-02-09T12:14:07.744Z,2.00
2019-02-09T12:16:36.124Z,2.50
2019-02-09T12:19:44.412Z,1.67
2019-02-09T12:22:12.785Z,2.10
2019-02-09T12:24:41.152Z,1.97
2019-02-09T12:27:09.525Z,2.03
2019-02-09T12:29:37.894Z,2.43
2019-02-09T12:37:54.684Z,2.63
2019-02-09T12:41:02.968Z,2.03
2019-02-09T12:43:31.330Z,1.97
2019-02-09T12:45:59.709Z,2.40
2019-02-09T12:48:28.087Z,1.87
2019-02-09T12:53:30.841Z,2.40
2019-02-09T12:55:59.217Z,1.70
2019-02-09T12:58:27.584Z,1.73
2019-02-09T13:01:15.086Z,2.50
2019-02-09T13:03:43.453Z,2.10
2019-02-09T13:06:31.149Z,2.07
2019-02-09T13:08:59.522Z,2.90
2019-02-09T13:11:47.012Z,2.13
2019-02-09T13:14:15.378Z,2.67
2019-02-09T13:16:44.006Z,2.37
2019-02-09T13:19:31.505Z,2.70
2019-02-09T13:22:19.000Z,3.00
2019-02-09T13:25:06.492Z,2.70
2019-02-09T13:27:34.874Z,2.87
2019-02-09T13:33:51.227Z,1.50
2019-02-09T13:36:19.600Z,2.37
2019-02-09T13:38:47.971Z,2.70
2019-02-09T13:41:16.345Z,2.40
2019-02-09T13:43:44.721Z,1.83
2019-02-09T13:46:13.095Z,2.20
2019-02-09T13:48:41.474Z,1.93
2019-02-09T13:51:29.089Z,2.87
2019-02-09T13:54:16.717Z,2.30
2019-02-09T13:57:04.210Z,2.27
2019-02-09T14:00:12.490Z,3.20
2019-02-09T14:03:20.783Z,3.40
2019-02-09T14:05:49.151Z,2.57
2019-02-09T14:08:17.526Z,2.73
2019-02-09T14:11:05.009Z,2.40
2019-02-09T14:13:33.379Z,2.83
2019-02-09T14:16:20.865Z,2.30
2019-02-09T14:18:49.239Z,2.93
2019-02-09T14:21:17.611Z,1.90
2019-02-09T14:24:05.100Z,2.33
2019-02-09T14:26:33.472Z,2.17
2019-02-09T14:29:21.107Z,2.60
2019-02-09T14:32:08.599Z,2.17
2019-02-09T14:34:36.973Z,2.17
2019-02-09T14:42:39.099Z,2.03
2019-02-09T14:45:47.376Z,2.10
2019-02-09T14:53:23.632Z,1.67
2019-02-09T14:56:11.249Z,2.13
2019-02-09T14:58:58.872Z,1.53
2019-02-09T15:01:27.239Z,1.80
2019-02-09T15:04:02.692Z,1.30
2019-02-09T15:06:25.697Z,1.77
2019-02-09T15:09:13.192Z,1.27
2019-02-09T15:11:41.556Z,1.70
2019-02-09T15:14:09.939Z,1.50
2019-02-09T15:19:46.378Z,1.60
2019-02-09T15:22:33.869Z,1.20
2019-02-09T15:25:02.240Z,1.30
2019-02-09T15:27:30.611Z,0.90
2019-02-09T15:29:58.992Z,1.10
2019-02-09T15:35:58.631Z,0.80
2019-02-09T15:38:27.039Z,1.10
2019-02-09T15:40:55.416Z,1.07
2019-02-09T15:43:43.040Z,1.23
2019-02-09T15:46:30.525Z,1.20
2019-02-09T15:49:18.020Z,1.47
2019-02-09T15:51:46.384Z,1.20
2019-02-09T15:54:14.760Z,1.73
2019-02-09T15:57:02.248Z,2.00
2019-02-09T15:59:30.630Z,1.80
2019-02-09T16:01:59.008Z,2.00
2019-02-09T16:04:27.383Z,1.87
2019-02-09T16:07:15.001Z,2.40
2019-02-09T16:09:43.394Z,2.07
2019-02-09T16:12:30.883Z,2.67
2019-02-09T16:15:18.378Z,2.40
2019-02-09T16:18:05.993Z,3.10
2019-02-09T16:21:14.283Z,3.20
2019-02-09T16:23:42.653Z,4.07
2019-02-09T16:26:33.099Z,2.90
2019-02-09T16:29:01.466Z,2.50
2019-02-09T16:31:30.085Z,2.77
2019-02-09T16:34:25.172Z,2.63
2019-02-09T16:37:06.923Z,1.90
2019-02-09T16:39:35.316Z,2.27
2019-02-09T16:45:51.678Z,3.47
2019-02-09T16:48:20.050Z,2.80
2019-02-09T16:53:22.857Z,5.57
2019-02-09T16:55:51.239Z,2.90
2019-02-09T16:58:38.721Z,3.50
2019-02-09T17:06:33.866Z,3.10
2019-02-09T17:11:51.323Z,2.60
2019-02-09T17:14:38.809Z,2.40
2019-02-09T17:17:07.194Z,3.20
2019-02-09T17:19:35.558Z,3.50
2019-02-09T17:24:58.287Z,3.17
2019-02-09T17:27:45.788Z,3.00
2019-02-09T17:30:54.075Z,3.20
2019-02-09T17:33:41.695Z,2.37
2019-02-09T17:36:29.192Z,2.70
2019-02-09T17:39:16.673Z,2.30
2019-02-09T17:41:45.052Z,2.93
2019-02-09T17:44:13.427Z,3.13
2019-02-09T17:46:41.808Z,2.60
2019-02-09T17:49:31.185Z,2.30
2019-02-09T17:52:18.826Z,2.37
2019-02-09T17:54:47.200Z,2.73
2019-02-09T17:57:34.901Z,2.80
2019-02-09T18:06:06.391Z,2.50
2019-02-09T18:08:34.776Z,2.07
2019-02-09T18:13:37.797Z,2.37
2019-02-09T18:16:06.175Z,2.40
2019-02-09T18:18:53.793Z,2.60
2019-02-09T18:21:22.170Z,2.67
2019-02-09T18:23:50.542Z,2.70
2019-02-09T18:26:38.038Z,2.20
2019-02-09T18:29:06.405Z,2.80
2019-02-09T18:31:34.786Z,3.40
2019-02-09T18:34:03.159Z,3.40
2019-02-09T18:36:31.529Z,3.77
2019-02-09T18:38:59.922Z,2.30
2019-02-09T18:41:28.307Z,2.00
2019-02-09T18:46:30.381Z,3.10
2019-02-09T18:49:17.873Z,3.33
2019-02-09T18:52:05.379Z,2.10
2019-02-09T18:54:33.758Z,2.70
2019-02-09T18:57:02.142Z,2.80
2019-02-09T18:59:49.773Z,2.60
2019-02-09T19:02:38.626Z,3.17
2019-02-09T19:05:47.553Z,2.80
2019-02-09T19:08:15.948Z,3.97
2019-02-09T19:11:03.562Z,3.07
2019-02-09T19:13:31.945Z,2.93
2019-02-09T19:16:19.577Z,3.10
2019-02-09T19:18:47.986Z,3.87
2019-02-09T19:21:16.353Z,3.10
2019-02-09T19:24:42.451Z,4.50
2019-02-09T19:27:10.822Z,4.30
2019-02-09T19:29:58.317Z,4.00
2019-02-09T19:32:45.817Z,4.47
2019-02-09T19:35:54.111Z,5.10
2019-02-09T19:38:41.609Z,3.20
2019-02-09T19:41:29.257Z,3.40
2019-02-09T19:43:57.669Z,4.37
2019-02-09T19:46:26.051Z,3.83
2019-02-09T19:49:13.778Z,3.27
2019-02-09T19:52:01.393Z,5.93
2019-02-09T19:54:29.846Z,3.80
2019-02-09T19:57:17.516Z,3.00
2019-02-09T19:59:45.894Z,4.20
2019-02-09T20:02:33.514Z,3.20
2019-02-09T20:07:55.560Z,3.10
2019-02-09T20:11:03.896Z,2.80
2019-02-09T20:16:06.832Z,2.50
2019-02-09T20:18:35.216Z,3.20
2019-02-09T20:21:03.585Z,4.40
2019-02-09T20:23:51.094Z,3.40
2019-02-09T20:26:38.583Z,2.63
2019-02-09T20:29:26.209Z,2.70
2019-02-09T20:32:13.829Z,3.67
2019-02-09T20:35:01.469Z,3.50
2019-02-09T20:37:48.953Z,3.37
2019-02-09T20:40:55.918Z,2.60
2019-02-09T20:43:24.304Z,3.17
2019-02-09T20:45:52.730Z,3.40
2019-02-09T20:48:40.238Z,3.50
2019-02-09T20:51:08.630Z,3.83
2019-02-09T20:53:56.153Z,2.83
2019-02-09T20:56:24.560Z,3.40
2019-02-09T20:59:12.187Z,4.40
2019-02-09T21:01:59.715Z,3.10
2019-02-09T21:04:28.078Z,2.70
2019-02-09T21:09:43.889Z,3.20
2019-02-09T21:12:12.280Z,2.50
2019-02-09T21:14:40.700Z,2.80
2019-02-09T21:17:09.074Z,3.40
2019-02-09T21:19:37.725Z,3.50
2019-02-09T21:22:45.963Z,2.40
2019-02-09T21:25:54.367Z,3.00
2019-02-09T21:28:41.981Z,2.43
2019-02-09T21:31:10.366Z,3.05
2019-02-09T21:33:58.081Z,4.03
2019-02-09T21:36:45.777Z,2.57
2019-02-09T21:39:34.117Z,3.30
2019-02-09T21:42:22.954Z,2.93
2019-02-09T21:44:51.347Z,3.63
2019-02-09T21:47:38.838Z,3.70
2019-02-09T21:50:47.127Z,2.87
2019-02-09T21:53:34.747Z,2.83
2019-02-09T21:56:03.131Z,2.63
2019-02-09T21:58:50.751Z,3.93
2019-02-09T22:01:19.135Z,2.40
2019-02-09T22:03:47.578Z,3.20
2019-02-09T22:06:15.959Z,2.83
2019-02-09T22:08:44.408Z,3.10
2019-02-09T22:11:12.981Z,3.10
2019-02-09T22:13:41.378Z,2.90
2019-02-09T22:19:03.287Z,5.50
2019-02-09T22:21:51.270Z,3.40
2019-02-09T22:24:21.030Z,2.73
2019-02-09T22:27:08.748Z,3.23
2019-02-09T22:29:57.919Z,3.30
2019-02-09T22:32:26.333Z,3.30
2019-02-09T22:35:13.981Z,3.00
2019-02-09T22:38:01.678Z,2.43
2019-02-09T22:41:09.977Z,2.87
2019-02-09T22:46:25.809Z,3.80
2019-02-09T22:48:54.184Z,3.50
2019-02-09T22:53:57.187Z,3.73
2019-02-09T22:59:00.096Z,3.07
2019-02-09T23:01:47.995Z,3.27
2019-02-09T23:04:56.279Z,3.30
2019-02-09T23:07:24.656Z,2.60
2019-02-09T23:10:12.278Z,3.50
2019-02-09T23:12:59.982Z,4.47
2019-02-09T23:15:47.600Z,3.13
2019-02-09T23:18:35.348Z,4.20
2019-02-09T23:21:03.723Z,3.57
2019-02-09T23:23:54.574Z,4.13
2019-02-09T23:26:42.204Z,3.23
2019-02-09T23:29:29.824Z,4.70
2019-02-09T23:31:58.225Z,3.87
2019-02-09T23:34:26.601Z,2.43
2019-02-09T23:36:54.980Z,3.23
2019-02-09T23:39:23.403Z,3.27
2019-02-09T23:42:11.134Z,3.37
2019-02-09T23:44:39.504Z,3.33
2019-02-09T23:49:42.094Z,3.53
2019-02-09T23:52:10.723Z,3.23
2019-02-09T23:57:32.243Z,2.93
